Terminal Aerodrome Forecast
Issued by NWS Los Angeles, CA

Home | Current Version | Previous Version | Text Only | Print | Product List | Glossary On
Versions: 1 2 3 4 5 6 7 8 9 10 11 12 13 14 15 16 17 18 19 20 21 22 23 24
000
FTUS46 KLOX 121400 AAA
TAFSMX
TAF AMD
KSMX 121409Z 1214/1312 VRB03KT P6SM OVC010
     FM121700 31008KT P6SM SCT015 SCT200
     FM122000 30014G22KT P6SM SCT200
     FM130200 30008KT P6SM SCT200
     FM130600 VRB03KT 5SM BR OVC006=

USA.gov is the U.S. government's official web portal to all federal, state and local government web resources and services.